<?xml version="1.0" encoding="UTF-8" ?>
<gpx version="1.1" xmlns:xsi="http://www.w3.org/2001/XMLSchema-instance" 
    xmlns="http://www.topografix.com/GPX/1/1" 
    xsi:schemaLocation="http://www.topografix.com/GPX/1/1 http://www.topografix.com/GPX/1/1/gpx.xsd" 
    creator="Openrunner - https://www.openrunner.com" >	<trk>
						<name>11242011-Balade Verte - Circuit des Calvaires 2 - OUR2</name>
						<trkseg>
					<trkpt lat="46.721540" lon="4.953920">
						<ele>194</ele>
						<time>2022-10-31T15:08:33Z</time>
					</trkpt>
					<trkpt lat="46.721520" lon="4.953600">
						<ele>194</ele>
						<time>2022-10-31T15:09:02Z</time>
					</trkpt>
					<trkpt lat="46.721600" lon="4.953590">
						<ele>194</ele>
						<time>2022-10-31T15:09:13Z</time>
					</trkpt>
					<trkpt lat="46.722190" lon="4.953530">
						<ele>194</ele>
						<time>2022-10-31T15:10:32Z</time>
					</trkpt>
					<trkpt lat="46.722320" lon="4.953520">
						<ele>194</ele>
						<time>2022-10-31T15:10:49Z</time>
					</trkpt>
					<trkpt lat="46.722610" lon="4.953440">
						<ele>194</ele>
						<time>2022-10-31T15:11:29Z</time>
					</trkpt>
					<trkpt lat="46.722760" lon="4.953370">
						<ele>194</ele>
						<time>2022-10-31T15:11:50Z</time>
					</trkpt>
					<trkpt lat="46.723120" lon="4.953180">
						<ele>194</ele>
						<time>2022-10-31T15:12:41Z</time>
					</trkpt>
					<trkpt lat="46.723480" lon="4.952960">
						<ele>194</ele>
						<time>2022-10-31T15:13:33Z</time>
					</trkpt>
					<trkpt lat="46.724130" lon="4.952550">
						<ele>195</ele>
						<time>2022-10-31T15:15:07Z</time>
					</trkpt>
					<trkpt lat="46.724210" lon="4.952500">
						<ele>195</ele>
						<time>2022-10-31T15:15:19Z</time>
					</trkpt>
					<trkpt lat="46.724690" lon="4.952020">
						<ele>194</ele>
						<time>2022-10-31T15:16:37Z</time>
					</trkpt>
					<trkpt lat="46.724820" lon="4.951900">
						<ele>194</ele>
						<time>2022-10-31T15:16:57Z</time>
					</trkpt>
					<trkpt lat="46.724900" lon="4.951860">
						<ele>194</ele>
						<time>2022-10-31T15:17:09Z</time>
					</trkpt>
					<trkpt lat="46.724910" lon="4.951800">
						<ele>194</ele>
						<time>2022-10-31T15:17:14Z</time>
					</trkpt>
					<trkpt lat="46.725040" lon="4.951610">
						<ele>194</ele>
						<time>2022-10-31T15:17:39Z</time>
					</trkpt>
					<trkpt lat="46.725440" lon="4.950970">
						<ele>193</ele>
						<time>2022-10-31T15:18:58Z</time>
					</trkpt>
					<trkpt lat="46.725520" lon="4.950910">
						<ele>193</ele>
						<time>2022-10-31T15:19:10Z</time>
					</trkpt>
					<trkpt lat="46.725480" lon="4.950740">
						<ele>193</ele>
						<time>2022-10-31T15:19:26Z</time>
					</trkpt>
					<trkpt lat="46.725610" lon="4.950600">
						<ele>193</ele>
						<time>2022-10-31T15:19:48Z</time>
					</trkpt>
					<trkpt lat="46.725740" lon="4.950350">
						<ele>192</ele>
						<time>2022-10-31T15:20:17Z</time>
					</trkpt>
					<trkpt lat="46.726170" lon="4.948790">
						<ele>191</ele>
						<time>2022-10-31T15:22:51Z</time>
					</trkpt>
					<trkpt lat="46.726430" lon="4.948040">
						<ele>190</ele>
						<time>2022-10-31T15:24:07Z</time>
					</trkpt>
					<trkpt lat="46.726610" lon="4.947280">
						<ele>190</ele>
						<time>2022-10-31T15:25:21Z</time>
					</trkpt>
					<trkpt lat="46.726640" lon="4.946990">
						<ele>190</ele>
						<time>2022-10-31T15:25:48Z</time>
					</trkpt>
					<trkpt lat="46.726810" lon="4.946810">
						<ele>190</ele>
						<time>2022-10-31T15:26:16Z</time>
					</trkpt>
					<trkpt lat="46.727310" lon="4.946180">
						<ele>189</ele>
						<time>2022-10-31T15:27:44Z</time>
					</trkpt>
					<trkpt lat="46.727610" lon="4.945820">
						<ele>188</ele>
						<time>2022-10-31T15:28:36Z</time>
					</trkpt>
					<trkpt lat="46.728250" lon="4.944950">
						<ele>189</ele>
						<time>2022-10-31T15:30:33Z</time>
					</trkpt>
					<trkpt lat="46.728500" lon="4.944600">
						<ele>189</ele>
						<time>2022-10-31T15:31:19Z</time>
					</trkpt>
					<trkpt lat="46.729080" lon="4.943840">
						<ele>189</ele>
						<time>2022-10-31T15:33:03Z</time>
					</trkpt>
					<trkpt lat="46.729260" lon="4.943600">
						<ele>190</ele>
						<time>2022-10-31T15:33:35Z</time>
					</trkpt>
					<trkpt lat="46.729430" lon="4.943370">
						<ele>190</ele>
						<time>2022-10-31T15:34:06Z</time>
					</trkpt>
					<trkpt lat="46.729520" lon="4.943260">
						<ele>191</ele>
						<time>2022-10-31T15:34:22Z</time>
					</trkpt>
					<trkpt lat="46.729620" lon="4.943090">
						<ele>192</ele>
						<time>2022-10-31T15:34:42Z</time>
					</trkpt>
					<trkpt lat="46.729650" lon="4.943000">
						<ele>192</ele>
						<time>2022-10-31T15:34:52Z</time>
					</trkpt>
					<trkpt lat="46.729670" lon="4.942920">
						<ele>193</ele>
						<time>2022-10-31T15:34:59Z</time>
					</trkpt>
					<trkpt lat="46.729680" lon="4.942820">
						<ele>193</ele>
						<time>2022-10-31T15:35:09Z</time>
					</trkpt>
					<trkpt lat="46.729780" lon="4.942320">
						<ele>194</ele>
						<time>2022-10-31T15:35:56Z</time>
					</trkpt>
					<trkpt lat="46.729840" lon="4.941890">
						<ele>195</ele>
						<time>2022-10-31T15:36:36Z</time>
					</trkpt>
					<trkpt lat="46.729880" lon="4.941610">
						<ele>195</ele>
						<time>2022-10-31T15:37:03Z</time>
					</trkpt>
					<trkpt lat="46.730010" lon="4.941130">
						<ele>195</ele>
						<time>2022-10-31T15:37:50Z</time>
					</trkpt>
					<trkpt lat="46.730110" lon="4.940770">
						<ele>195</ele>
						<time>2022-10-31T15:38:25Z</time>
					</trkpt>
					<trkpt lat="46.730220" lon="4.940370">
						<ele>194</ele>
						<time>2022-10-31T15:39:05Z</time>
					</trkpt>
					<trkpt lat="46.730340" lon="4.940090">
						<ele>194</ele>
						<time>2022-10-31T15:39:35Z</time>
					</trkpt>
					<trkpt lat="46.730440" lon="4.939950">
						<ele>194</ele>
						<time>2022-10-31T15:39:53Z</time>
					</trkpt>
					<trkpt lat="46.730740" lon="4.939590">
						<ele>194</ele>
						<time>2022-10-31T15:40:45Z</time>
					</trkpt>
					<trkpt lat="46.731190" lon="4.939090">
						<ele>194</ele>
						<time>2022-10-31T15:42:01Z</time>
					</trkpt>
					<trkpt lat="46.731770" lon="4.938450">
						<ele>192</ele>
						<time>2022-10-31T15:43:38Z</time>
					</trkpt>
					<trkpt lat="46.732020" lon="4.938260">
						<ele>192</ele>
						<time>2022-10-31T15:44:15Z</time>
					</trkpt>
					<trkpt lat="46.732180" lon="4.938160">
						<ele>193</ele>
						<time>2022-10-31T15:44:39Z</time>
					</trkpt>
					<trkpt lat="46.732440" lon="4.938090">
						<ele>193</ele>
						<time>2022-10-31T15:45:14Z</time>
					</trkpt>
					<trkpt lat="46.733140" lon="4.938120">
						<ele>194</ele>
						<time>2022-10-31T15:46:47Z</time>
					</trkpt>
					<trkpt lat="46.734190" lon="4.937700">
						<ele>193</ele>
						<time>2022-10-31T15:49:13Z</time>
					</trkpt>
					<trkpt lat="46.734450" lon="4.937700">
						<ele>194</ele>
						<time>2022-10-31T15:49:47Z</time>
					</trkpt>
					<trkpt lat="46.734710" lon="4.937690">
						<ele>195</ele>
						<time>2022-10-31T15:50:22Z</time>
					</trkpt>
					<trkpt lat="46.735210" lon="4.937750">
						<ele>196</ele>
						<time>2022-10-31T15:51:29Z</time>
					</trkpt>
					<trkpt lat="46.735660" lon="4.937760">
						<ele>195</ele>
						<time>2022-10-31T15:52:29Z</time>
					</trkpt>
					<trkpt lat="46.735920" lon="4.937770">
						<ele>195</ele>
						<time>2022-10-31T15:53:04Z</time>
					</trkpt>
					<trkpt lat="46.736170" lon="4.937790">
						<ele>194</ele>
						<time>2022-10-31T15:53:37Z</time>
					</trkpt>
					<trkpt lat="46.736540" lon="4.937660">
						<ele>194</ele>
						<time>2022-10-31T15:54:28Z</time>
					</trkpt>
					<trkpt lat="46.736860" lon="4.937510">
						<ele>194</ele>
						<time>2022-10-31T15:55:13Z</time>
					</trkpt>
					<trkpt lat="46.737040" lon="4.937530">
						<ele>194</ele>
						<time>2022-10-31T15:55:37Z</time>
					</trkpt>
					<trkpt lat="46.737260" lon="4.937560">
						<ele>194</ele>
						<time>2022-10-31T15:56:06Z</time>
					</trkpt>
					<trkpt lat="46.737630" lon="4.937790">
						<ele>194</ele>
						<time>2022-10-31T15:57:00Z</time>
					</trkpt>
					<trkpt lat="46.737900" lon="4.937930">
						<ele>194</ele>
						<time>2022-10-31T15:57:38Z</time>
					</trkpt>
					<trkpt lat="46.738130" lon="4.938060">
						<ele>194</ele>
						<time>2022-10-31T15:58:11Z</time>
					</trkpt>
					<trkpt lat="46.738730" lon="4.938390">
						<ele>194</ele>
						<time>2022-10-31T15:59:37Z</time>
					</trkpt>
					<trkpt lat="46.738580" lon="4.938820">
						<ele>194</ele>
						<time>2022-10-31T16:00:21Z</time>
					</trkpt>
					<trkpt lat="46.738280" lon="4.939320">
						<ele>194</ele>
						<time>2022-10-31T16:01:22Z</time>
					</trkpt>
					<trkpt lat="46.737770" lon="4.940040">
						<ele>194</ele>
						<time>2022-10-31T16:02:56Z</time>
					</trkpt>
					<trkpt lat="46.737700" lon="4.940120">
						<ele>194</ele>
						<time>2022-10-31T16:03:08Z</time>
					</trkpt>
					<trkpt lat="46.737870" lon="4.941030">
						<ele>193</ele>
						<time>2022-10-31T16:04:35Z</time>
					</trkpt>
					<trkpt lat="46.738040" lon="4.941990">
						<ele>193</ele>
						<time>2022-10-31T16:06:05Z</time>
					</trkpt>
					<trkpt lat="46.738180" lon="4.942990">
						<ele>192</ele>
						<time>2022-10-31T16:07:39Z</time>
					</trkpt>
					<trkpt lat="46.738270" lon="4.943820">
						<ele>192</ele>
						<time>2022-10-31T16:08:55Z</time>
					</trkpt>
					<trkpt lat="46.738300" lon="4.944320">
						<ele>191</ele>
						<time>2022-10-31T16:09:41Z</time>
					</trkpt>
					<trkpt lat="46.738260" lon="4.944350">
						<ele>191</ele>
						<time>2022-10-31T16:09:47Z</time>
					</trkpt>
					<trkpt lat="46.738220" lon="4.944400">
						<ele>191</ele>
						<time>2022-10-31T16:09:54Z</time>
					</trkpt>
					<trkpt lat="46.738120" lon="4.944720">
						<ele>192</ele>
						<time>2022-10-31T16:10:27Z</time>
					</trkpt>
					<trkpt lat="46.737820" lon="4.945580">
						<ele>194</ele>
						<time>2022-10-31T16:11:55Z</time>
					</trkpt>
					<trkpt lat="46.737690" lon="4.945950">
						<ele>195</ele>
						<time>2022-10-31T16:12:33Z</time>
					</trkpt>
					<trkpt lat="46.737630" lon="4.946140">
						<ele>195</ele>
						<time>2022-10-31T16:12:52Z</time>
					</trkpt>
					<trkpt lat="46.737480" lon="4.947000">
						<ele>193</ele>
						<time>2022-10-31T16:14:13Z</time>
					</trkpt>
					<trkpt lat="46.737460" lon="4.947090">
						<ele>193</ele>
						<time>2022-10-31T16:14:22Z</time>
					</trkpt>
					<trkpt lat="46.737370" lon="4.947340">
						<ele>192</ele>
						<time>2022-10-31T16:14:48Z</time>
					</trkpt>
					<trkpt lat="46.737100" lon="4.947890">
						<ele>190</ele>
						<time>2022-10-31T16:15:49Z</time>
					</trkpt>
					<trkpt lat="46.736850" lon="4.948350">
						<ele>190</ele>
						<time>2022-10-31T16:16:43Z</time>
					</trkpt>
					<trkpt lat="46.736830" lon="4.948450">
						<ele>190</ele>
						<time>2022-10-31T16:16:53Z</time>
					</trkpt>
					<trkpt lat="46.736830" lon="4.948580">
						<ele>190</ele>
						<time>2022-10-31T16:17:05Z</time>
					</trkpt>
					<trkpt lat="46.736870" lon="4.949070">
						<ele>190</ele>
						<time>2022-10-31T16:17:50Z</time>
					</trkpt>
					<trkpt lat="46.736930" lon="4.949560">
						<ele>189</ele>
						<time>2022-10-31T16:18:35Z</time>
					</trkpt>
					<trkpt lat="46.737140" lon="4.950830">
						<ele>188</ele>
						<time>2022-10-31T16:20:35Z</time>
					</trkpt>
					<trkpt lat="46.737140" lon="4.950910">
						<ele>188</ele>
						<time>2022-10-31T16:20:42Z</time>
					</trkpt>
					<trkpt lat="46.737110" lon="4.950980">
						<ele>188</ele>
						<time>2022-10-31T16:20:50Z</time>
					</trkpt>
					<trkpt lat="46.736900" lon="4.951050">
						<ele>188</ele>
						<time>2022-10-31T16:21:18Z</time>
					</trkpt>
					<trkpt lat="46.736760" lon="4.951070">
						<ele>188</ele>
						<time>2022-10-31T16:21:37Z</time>
					</trkpt>
					<trkpt lat="46.736650" lon="4.951080">
						<ele>188</ele>
						<time>2022-10-31T16:21:52Z</time>
					</trkpt>
					<trkpt lat="46.735890" lon="4.950980">
						<ele>188</ele>
						<time>2022-10-31T16:23:34Z</time>
					</trkpt>
					<trkpt lat="46.735180" lon="4.950870">
						<ele>189</ele>
						<time>2022-10-31T16:25:09Z</time>
					</trkpt>
					<trkpt lat="46.735020" lon="4.950850">
						<ele>189</ele>
						<time>2022-10-31T16:25:30Z</time>
					</trkpt>
					<trkpt lat="46.734980" lon="4.950820">
						<ele>189</ele>
						<time>2022-10-31T16:25:36Z</time>
					</trkpt>
					<trkpt lat="46.734960" lon="4.950780">
						<ele>189</ele>
						<time>2022-10-31T16:25:41Z</time>
					</trkpt>
					<trkpt lat="46.734950" lon="4.950710">
						<ele>189</ele>
						<time>2022-10-31T16:25:47Z</time>
					</trkpt>
					<trkpt lat="46.734950" lon="4.950620">
						<ele>189</ele>
						<time>2022-10-31T16:25:56Z</time>
					</trkpt>
					<trkpt lat="46.735010" lon="4.950040">
						<ele>189</ele>
						<time>2022-10-31T16:26:49Z</time>
					</trkpt>
					<trkpt lat="46.735020" lon="4.949930">
						<ele>189</ele>
						<time>2022-10-31T16:26:59Z</time>
					</trkpt>
					<trkpt lat="46.735010" lon="4.949770">
						<ele>190</ele>
						<time>2022-10-31T16:27:14Z</time>
					</trkpt>
					<trkpt lat="46.734960" lon="4.949400">
						<ele>191</ele>
						<time>2022-10-31T16:27:49Z</time>
					</trkpt>
					<trkpt lat="46.734930" lon="4.949320">
						<ele>191</ele>
						<time>2022-10-31T16:27:57Z</time>
					</trkpt>
					<trkpt lat="46.734910" lon="4.949290">
						<ele>191</ele>
						<time>2022-10-31T16:28:01Z</time>
					</trkpt>
					<trkpt lat="46.734880" lon="4.949260">
						<ele>191</ele>
						<time>2022-10-31T16:28:06Z</time>
					</trkpt>
					<trkpt lat="46.734830" lon="4.949280">
						<ele>191</ele>
						<time>2022-10-31T16:28:13Z</time>
					</trkpt>
					<trkpt lat="46.734160" lon="4.949570">
						<ele>193</ele>
						<time>2022-10-31T16:29:46Z</time>
					</trkpt>
					<trkpt lat="46.733630" lon="4.949800">
						<ele>195</ele>
						<time>2022-10-31T16:31:00Z</time>
					</trkpt>
					<trkpt lat="46.733490" lon="4.949850">
						<ele>195</ele>
						<time>2022-10-31T16:31:19Z</time>
					</trkpt>
					<trkpt lat="46.733440" lon="4.949910">
						<ele>196</ele>
						<time>2022-10-31T16:31:27Z</time>
					</trkpt>
					<trkpt lat="46.733420" lon="4.950010">
						<ele>195</ele>
						<time>2022-10-31T16:31:37Z</time>
					</trkpt>
					<trkpt lat="46.733410" lon="4.950150">
						<ele>195</ele>
						<time>2022-10-31T16:31:50Z</time>
					</trkpt>
					<trkpt lat="46.733430" lon="4.950800">
						<ele>193</ele>
						<time>2022-10-31T16:32:49Z</time>
					</trkpt>
					<trkpt lat="46.733420" lon="4.951030">
						<ele>193</ele>
						<time>2022-10-31T16:33:10Z</time>
					</trkpt>
					<trkpt lat="46.733380" lon="4.951450">
						<ele>192</ele>
						<time>2022-10-31T16:33:49Z</time>
					</trkpt>
					<trkpt lat="46.733320" lon="4.951860">
						<ele>192</ele>
						<time>2022-10-31T16:34:28Z</time>
					</trkpt>
					<trkpt lat="46.733310" lon="4.951930">
						<ele>192</ele>
						<time>2022-10-31T16:34:34Z</time>
					</trkpt>
					<trkpt lat="46.733250" lon="4.952020">
						<ele>192</ele>
						<time>2022-10-31T16:34:46Z</time>
					</trkpt>
					<trkpt lat="46.733210" lon="4.952050">
						<ele>192</ele>
						<time>2022-10-31T16:34:52Z</time>
					</trkpt>
					<trkpt lat="46.733120" lon="4.952040">
						<ele>192</ele>
						<time>2022-10-31T16:35:04Z</time>
					</trkpt>
					<trkpt lat="46.732780" lon="4.951890">
						<ele>192</ele>
						<time>2022-10-31T16:35:51Z</time>
					</trkpt>
					<trkpt lat="46.731950" lon="4.951400">
						<ele>192</ele>
						<time>2022-10-31T16:37:51Z</time>
					</trkpt>
					<trkpt lat="46.731650" lon="4.951220">
						<ele>192</ele>
						<time>2022-10-31T16:38:34Z</time>
					</trkpt>
					<trkpt lat="46.731560" lon="4.951170">
						<ele>192</ele>
						<time>2022-10-31T16:38:47Z</time>
					</trkpt>
					<trkpt lat="46.731460" lon="4.951170">
						<ele>192</ele>
						<time>2022-10-31T16:39:00Z</time>
					</trkpt>
					<trkpt lat="46.731290" lon="4.951160">
						<ele>192</ele>
						<time>2022-10-31T16:39:23Z</time>
					</trkpt>
					<trkpt lat="46.731220" lon="4.951150">
						<ele>192</ele>
						<time>2022-10-31T16:39:32Z</time>
					</trkpt>
					<trkpt lat="46.731160" lon="4.951130">
						<ele>192</ele>
						<time>2022-10-31T16:39:40Z</time>
					</trkpt>
					<trkpt lat="46.731110" lon="4.951100">
						<ele>192</ele>
						<time>2022-10-31T16:39:48Z</time>
					</trkpt>
					<trkpt lat="46.730660" lon="4.950630">
						<ele>193</ele>
						<time>2022-10-31T16:41:01Z</time>
					</trkpt>
					<trkpt lat="46.730580" lon="4.950570">
						<ele>193</ele>
						<time>2022-10-31T16:41:13Z</time>
					</trkpt>
					<trkpt lat="46.730150" lon="4.951610">
						<ele>194</ele>
						<time>2022-10-31T16:43:05Z</time>
					</trkpt>
					<trkpt lat="46.729700" lon="4.952670">
						<ele>194</ele>
						<time>2022-10-31T16:44:59Z</time>
					</trkpt>
					<trkpt lat="46.729180" lon="4.953930">
						<ele>195</ele>
						<time>2022-10-31T16:47:13Z</time>
					</trkpt>
					<trkpt lat="46.728630" lon="4.955240">
						<ele>194</ele>
						<time>2022-10-31T16:49:34Z</time>
					</trkpt>
					<trkpt lat="46.727990" lon="4.956770">
						<ele>190</ele>
						<time>2022-10-31T16:52:18Z</time>
					</trkpt>
					<trkpt lat="46.727620" lon="4.957650">
						<ele>189</ele>
						<time>2022-10-31T16:53:52Z</time>
					</trkpt>
					<trkpt lat="46.727520" lon="4.957880">
						<ele>189</ele>
						<time>2022-10-31T16:54:17Z</time>
					</trkpt>
					<trkpt lat="46.727460" lon="4.958010">
						<ele>189</ele>
						<time>2022-10-31T16:54:31Z</time>
					</trkpt>
					<trkpt lat="46.727400" lon="4.958100">
						<ele>189</ele>
						<time>2022-10-31T16:54:43Z</time>
					</trkpt>
					<trkpt lat="46.727360" lon="4.958170">
						<ele>189</ele>
						<time>2022-10-31T16:54:51Z</time>
					</trkpt>
					<trkpt lat="46.727300" lon="4.958200">
						<ele>189</ele>
						<time>2022-10-31T16:55:00Z</time>
					</trkpt>
					<trkpt lat="46.727280" lon="4.958260">
						<ele>190</ele>
						<time>2022-10-31T16:55:06Z</time>
					</trkpt>
					<trkpt lat="46.727240" lon="4.958320">
						<ele>190</ele>
						<time>2022-10-31T16:55:13Z</time>
					</trkpt>
					<trkpt lat="46.726720" lon="4.959610">
						<ele>189</ele>
						<time>2022-10-31T16:57:30Z</time>
					</trkpt>
					<trkpt lat="46.726530" lon="4.960050">
						<ele>190</ele>
						<time>2022-10-31T16:58:18Z</time>
					</trkpt>
					<trkpt lat="46.726470" lon="4.960230">
						<ele>190</ele>
						<time>2022-10-31T16:58:36Z</time>
					</trkpt>
					<trkpt lat="46.726450" lon="4.960420">
						<ele>190</ele>
						<time>2022-10-31T16:58:54Z</time>
					</trkpt>
					<trkpt lat="46.726420" lon="4.960540">
						<ele>190</ele>
						<time>2022-10-31T16:59:05Z</time>
					</trkpt>
					<trkpt lat="46.726190" lon="4.961060">
						<ele>190</ele>
						<time>2022-10-31T17:00:02Z</time>
					</trkpt>
					<trkpt lat="46.725980" lon="4.961580">
						<ele>189</ele>
						<time>2022-10-31T17:00:57Z</time>
					</trkpt>
					<trkpt lat="46.725900" lon="4.961790">
						<ele>189</ele>
						<time>2022-10-31T17:01:19Z</time>
					</trkpt>
					<trkpt lat="46.725870" lon="4.961840">
						<ele>189</ele>
						<time>2022-10-31T17:01:25Z</time>
					</trkpt>
					<trkpt lat="46.725090" lon="4.963690">
						<ele>189</ele>
						<time>2022-10-31T17:04:44Z</time>
					</trkpt>
					<trkpt lat="46.724700" lon="4.964610">
						<ele>189</ele>
						<time>2022-10-31T17:06:23Z</time>
					</trkpt>
					<trkpt lat="46.724020" lon="4.966250">
						<ele>189</ele>
						<time>2022-10-31T17:09:18Z</time>
					</trkpt>
					<trkpt lat="46.723800" lon="4.966710">
						<ele>190</ele>
						<time>2022-10-31T17:10:09Z</time>
					</trkpt>
					<trkpt lat="46.723400" lon="4.967440">
						<ele>191</ele>
						<time>2022-10-31T17:11:35Z</time>
					</trkpt>
					<trkpt lat="46.723290" lon="4.967610">
						<ele>191</ele>
						<time>2022-10-31T17:11:56Z</time>
					</trkpt>
					<trkpt lat="46.723270" lon="4.967640">
						<ele>191</ele>
						<time>2022-10-31T17:12:00Z</time>
					</trkpt>
					<trkpt lat="46.723270" lon="4.965830">
						<ele>189</ele>
						<time>2022-10-31T17:14:46Z</time>
					</trkpt>
					<trkpt lat="46.723280" lon="4.964150">
						<ele>189</ele>
						<time>2022-10-31T17:17:19Z</time>
					</trkpt>
					<trkpt lat="46.723290" lon="4.963300">
						<ele>190</ele>
						<time>2022-10-31T17:18:37Z</time>
					</trkpt>
					<trkpt lat="46.723270" lon="4.963170">
						<ele>190</ele>
						<time>2022-10-31T17:18:49Z</time>
					</trkpt>
					<trkpt lat="46.723240" lon="4.963030">
						<ele>190</ele>
						<time>2022-10-31T17:19:03Z</time>
					</trkpt>
					<trkpt lat="46.722720" lon="4.961400">
						<ele>189</ele>
						<time>2022-10-31T17:21:47Z</time>
					</trkpt>
					<trkpt lat="46.722330" lon="4.960220">
						<ele>189</ele>
						<time>2022-10-31T17:23:47Z</time>
					</trkpt>
					<trkpt lat="46.722250" lon="4.960000">
						<ele>189</ele>
						<time>2022-10-31T17:24:10Z</time>
					</trkpt>
					<trkpt lat="46.722180" lon="4.959850">
						<ele>189</ele>
						<time>2022-10-31T17:24:27Z</time>
					</trkpt>
					<trkpt lat="46.722110" lon="4.959750">
						<ele>189</ele>
						<time>2022-10-31T17:24:40Z</time>
					</trkpt>
					<trkpt lat="46.722030" lon="4.959700">
						<ele>189</ele>
						<time>2022-10-31T17:24:51Z</time>
					</trkpt>
					<trkpt lat="46.721800" lon="4.959580">
						<ele>190</ele>
						<time>2022-10-31T17:25:24Z</time>
					</trkpt>
					<trkpt lat="46.721740" lon="4.959540">
						<ele>190</ele>
						<time>2022-10-31T17:25:33Z</time>
					</trkpt>
					<trkpt lat="46.721690" lon="4.959490">
						<ele>190</ele>
						<time>2022-10-31T17:25:41Z</time>
					</trkpt>
					<trkpt lat="46.721660" lon="4.959410">
						<ele>190</ele>
						<time>2022-10-31T17:25:49Z</time>
					</trkpt>
					<trkpt lat="46.721650" lon="4.959280">
						<ele>189</ele>
						<time>2022-10-31T17:26:01Z</time>
					</trkpt>
					<trkpt lat="46.721760" lon="4.957770">
						<ele>189</ele>
						<time>2022-10-31T17:28:20Z</time>
					</trkpt>
					<trkpt lat="46.721770" lon="4.957500">
						<ele>190</ele>
						<time>2022-10-31T17:28:45Z</time>
					</trkpt>
					<trkpt lat="46.721760" lon="4.957280">
						<ele>190</ele>
						<time>2022-10-31T17:29:05Z</time>
					</trkpt>
					<trkpt lat="46.721700" lon="4.957020">
						<ele>191</ele>
						<time>2022-10-31T17:29:30Z</time>
					</trkpt>
					<trkpt lat="46.721550" lon="4.956580">
						<ele>192</ele>
						<time>2022-10-31T17:30:15Z</time>
					</trkpt>
					<trkpt lat="46.721420" lon="4.956280">
						<ele>191</ele>
						<time>2022-10-31T17:30:47Z</time>
					</trkpt>
					<trkpt lat="46.721250" lon="4.955930">
						<ele>190</ele>
						<time>2022-10-31T17:31:27Z</time>
					</trkpt>
					<trkpt lat="46.721180" lon="4.955720">
						<ele>191</ele>
						<time>2022-10-31T17:31:48Z</time>
					</trkpt>
					<trkpt lat="46.721120" lon="4.955740">
						<ele>191</ele>
						<time>2022-10-31T17:31:56Z</time>
					</trkpt>
					<trkpt lat="46.721000" lon="4.955790">
						<ele>190</ele>
						<time>2022-10-31T17:32:13Z</time>
					</trkpt>
					<trkpt lat="46.720940" lon="4.955840">
						<ele>190</ele>
						<time>2022-10-31T17:32:22Z</time>
					</trkpt>
					<trkpt lat="46.720870" lon="4.955740">
						<ele>190</ele>
						<time>2022-10-31T17:32:35Z</time>
					</trkpt>
					<trkpt lat="46.720820" lon="4.955640">
						<ele>190</ele>
						<time>2022-10-31T17:32:46Z</time>
					</trkpt>
					<trkpt lat="46.720610" lon="4.955000">
						<ele>191</ele>
						<time>2022-10-31T17:33:51Z</time>
					</trkpt>
					<trkpt lat="46.720370" lon="4.954110">
						<ele>190</ele>
						<time>2022-10-31T17:35:19Z</time>
					</trkpt>
					<trkpt lat="46.720300" lon="4.953890">
						<ele>189</ele>
						<time>2022-10-31T17:35:41Z</time>
					</trkpt>
					<trkpt lat="46.720400" lon="4.953830">
						<ele>190</ele>
						<time>2022-10-31T17:35:55Z</time>
					</trkpt>
					<trkpt lat="46.720940" lon="4.953500">
						<ele>192</ele>
						<time>2022-10-31T17:37:14Z</time>
					</trkpt>
					<trkpt lat="46.721140" lon="4.953450">
						<ele>192</ele>
						<time>2022-10-31T17:37:41Z</time>
					</trkpt>
					<trkpt lat="46.721350" lon="4.953560">
						<ele>193</ele>
						<time>2022-10-31T17:38:10Z</time>
					</trkpt>
					<trkpt lat="46.721420" lon="4.953590">
						<ele>193</ele>
						<time>2022-10-31T17:38:20Z</time>
					</trkpt>
					<trkpt lat="46.721520" lon="4.953600">
						<ele>194</ele>
						<time>2022-10-31T17:38:34Z</time>
					</trkpt>
					<trkpt lat="46.721540" lon="4.953920">
						<ele>194</ele>
						<time>2022-10-31T17:39:03Z</time>
					</trkpt>
					</trkseg>
				</trk>
			</gpx>